This is the latest recevied weather packets stored in our database for station/object SP2JGY-2. If no packets are shown the sender has not sent any weather packets the latest 10 day(s).
| Time | Temp. | Humidity | Pressure | Rain* | Wind** | Luminosity | Snow |
|---|---|---|---|---|---|---|---|
| 1788464340 | 15.56° C | 97% | 1014.2 hPa | - | - | - | - |
| 1788450829 | 16.11° C | 92% | 1015.4 hPa | - | - | - | - |
| 1788449026 | 16.67° C | 91% | 1015.7 hPa | - | - | - | - |
| 1788448126 | 16.67° C | 91% | 1015.7 hPa | - | - | - | - |
| 1788446325 | 16.67° C | 91% | 1016.1 hPa | - | - | - | - |
| 1788444523 | 17.22° C | 90% | 1016.5 hPa | - | - | - | - |
| 1788443622 | 17.22° C | 89% | 1016.8 hPa | - | - | - | - |
| 1788442721 | 17.22° C | 88% | 1017.1 hPa | - | - | - | - |
| 1788441820 | 16.67° C | 87% | 1017.2 hPa | - | - | - | - |
| 1788440919 | 17.22° C | 84% | 1017.2 hPa | - | - | - | - |
| 1788439118 | 18.33° C | 73% | 1017.2 hPa | - | - | - | - |
| 1788438218 | 18.33° C | 72% | 1017.3 hPa | - | - | - | - |
| 1788437316 | 18.89° C | 70% | 1017.4 hPa | - | - | - | - |
| 1788436415 | 19.44° C | 71% | 1017.5 hPa | - | - | - | - |
| 1788435515 | 19.44° C | 70% | 1017.6 hPa | - | - | - | - |
| 1788434613 | 20° C | 66% | 1017.7 hPa | - | - | - | - |
| 1788433715 | 20° C | 65% | 1017.8 hPa | - | - | - | - |
| 1788431911 | 20° C | 64% | 1017.9 hPa | - | - | - | - |
| 1788431010 | 20° C | 60% | 1017.9 hPa | - | - | - | - |
| 1788430108 | 20° C | 61% | 1018 hPa | - | - | - | - |
| 1788429207 | 20° C | 62% | 1018.2 hPa | - | - | - | - |
| 1788428307 | 20° C | 61% | 1018.3 hPa | - | - | - | - |
| 1788426505 | 18.89° C | 71% | 1018.5 hPa | - | - | - | - |
| 1788424704 | 18.33° C | 74% | 1018.7 hPa | - | - | - | - |
| 1788423804 | 18.33° C | 73% | 1018.8 hPa | - | - | - | - |
* Rain since midnight (hover to see other rain measurements)
** Current wind speed in m/s (hover to see current wind gust speed)